createdAt,value
2023-03-10T00:01:30.367Z,98344.16
2023-03-10T00:03:58.120Z,98340.00
2023-03-10T00:06:26.733Z,98330.63
2023-03-10T00:08:53.592Z,98327.28
2023-03-10T00:11:20.634Z,98322.88
2023-03-10T00:13:47.878Z,98323.44
2023-03-10T00:16:25.765Z,98316.22
2023-03-10T00:18:53.177Z,98316.75
2023-03-10T00:21:22.414Z,98316.72
2023-03-10T00:23:48.987Z,98314.78
2023-03-10T00:26:16.753Z,98315.31
2023-03-10T00:28:43.160Z,98311.47
2023-03-10T00:31:16.013Z,98313.09
2023-03-10T00:33:42.898Z,98312.81
2023-03-10T00:36:19.242Z,98313.03
2023-03-10T00:38:46.831Z,98312.19
2023-03-10T00:41:15.921Z,98309.94
2023-03-10T00:43:42.553Z,98293.41
2023-03-10T00:46:09.357Z,98288.13
2023-03-10T00:48:36.153Z,98292.84
2023-03-10T00:51:03.314Z,98298.66
2023-03-10T00:53:29.724Z,98297.56
2023-03-10T00:56:20.472Z,98288.19
2023-03-10T00:58:50.720Z,98278.28
2023-03-10T01:01:23.827Z,98282.44
2023-03-10T01:03:52.187Z,98277.97
2023-03-10T01:06:18.709Z,98279.66
2023-03-10T01:08:45.141Z,98274.72
2023-03-10T01:11:15.235Z,98282.13
2023-03-10T01:13:42.101Z,98280.19
2023-03-10T01:16:08.740Z,98269.22
2023-03-10T01:18:35.230Z,98272.28
2023-03-10T01:21:01.629Z,98274.25
2023-03-10T01:23:28.435Z,98276.44
2023-03-10T01:25:55.163Z,98273.69
2023-03-10T01:28:22.459Z,98277.28
2023-03-10T01:30:49.262Z,98270.69
2023-03-10T01:33:17.585Z,98275.97
2023-03-10T01:35:44.598Z,98273.72
2023-03-10T01:38:11.455Z,98270.44
2023-03-10T01:40:38.775Z,98258.31
2023-03-10T01:43:20.307Z,98256.06
2023-03-10T01:45:46.717Z,98262.75
2023-03-10T01:48:16.046Z,98252.25
2023-03-10T01:50:45.543Z,98252.81
2023-03-10T01:53:14.475Z,98252.31
2023-03-10T01:55:47.802Z,98246.78
2023-03-10T01:58:16.852Z,98250.91
2023-03-10T02:00:43.770Z,98249.31
2023-03-10T02:03:17.805Z,98253.44
2023-03-10T02:05:48.385Z,98247.41
2023-03-10T02:08:16.750Z,98254.00
2023-03-10T02:10:43.191Z,98251.84
2023-03-10T02:13:09.617Z,98254.59
2023-03-10T02:15:37.089Z,98251.28
2023-03-10T02:18:08.200Z,98256.28
2023-03-10T02:20:54.858Z,98248.28
2023-03-10T02:23:51.224Z,98264.03
2023-03-10T02:29:07.582Z,98255.78
2023-03-10T02:31:34.732Z,98259.63
2023-03-10T02:34:01.477Z,98259.38
2023-03-10T02:36:28.005Z,98246.41
2023-03-10T02:38:54.450Z,98246.94
2023-03-10T02:41:28.743Z,98237.31
2023-03-10T02:43:57.372Z,98244.75
2023-03-10T02:46:24.182Z,98252.47
2023-03-10T02:48:50.759Z,98234.81
2023-03-10T02:51:24.426Z,98243.00
2023-03-10T02:53:50.868Z,98228.69
2023-03-10T02:56:17.699Z,98237.78
2023-03-10T02:58:44.202Z,98246.56
2023-03-10T03:01:10.749Z,98235.78
2023-03-10T03:03:37.459Z,98226.59
2023-03-10T03:06:04.766Z,98225.72
2023-03-10T03:08:33.276Z,98229.03
2023-03-10T03:11:00.311Z,98233.66
2023-03-10T03:13:27.045Z,98228.97
2023-03-10T03:15:53.678Z,98221.53
2023-03-10T03:18:20.202Z,98232.31
2023-03-10T03:20:46.750Z,98228.47
2023-03-10T03:23:13.286Z,98216.84
2023-03-10T03:25:41.582Z,98208.03
2023-03-10T03:28:10.860Z,98205.56
2023-03-10T03:30:38.118Z,98203.06
2023-03-10T03:33:05.907Z,98208.34
2023-03-10T03:35:35.526Z,98207.53
2023-03-10T03:38:02.530Z,98197.88
2023-03-10T03:40:35.907Z,98199.22
2023-03-10T03:43:03.114Z,98198.13
2023-03-10T03:45:31.598Z,98191.50
2023-03-10T03:47:58.931Z,98191.78
2023-03-10T03:50:26.250Z,98183.78
2023-03-10T03:52:52.653Z,98191.78
2023-03-10T03:55:20.040Z,98183.00
2023-03-10T03:57:46.654Z,98181.09
2023-03-10T04:00:19.899Z,98180.28
2023-03-10T04:02:46.328Z,98176.78
2023-03-10T04:05:12.823Z,98187.56
2023-03-10T04:07:41.185Z,98176.81
2023-03-10T04:10:10.658Z,98167.47
2023-03-10T04:12:37.444Z,98172.75
2023-03-10T04:15:05.084Z,98173.31
2023-03-10T04:17:31.439Z,98173.66
2023-03-10T04:20:07.049Z,98171.16
2023-03-10T04:22:34.636Z,98166.50
2023-03-10T04:25:01.150Z,98170.19
2023-03-10T04:27:27.614Z,98179.81
2023-03-10T04:29:54.023Z,98160.25
2023-03-10T04:32:20.512Z,98155.28
2023-03-10T04:34:47.005Z,98159.97
2023-03-10T04:37:13.541Z,98159.44
2023-03-10T04:39:39.936Z,98156.94
2023-03-10T04:42:06.581Z,98159.94
2023-03-10T04:44:33.317Z,98157.19
2023-03-10T04:47:00.509Z,98156.09
2023-03-10T04:49:27.597Z,98153.34
2023-03-10T04:51:53.994Z,98153.34
2023-03-10T04:54:20.421Z,98152.81
2023-03-10T04:56:46.828Z,98154.44
2023-03-10T04:59:13.297Z,98152.25
2023-03-10T05:01:39.751Z,98144.28
2023-03-10T05:04:06.359Z,98144.00
2023-03-10T05:06:32.932Z,98127.47
2023-03-10T05:09:00.944Z,98141.22
2023-03-10T05:11:27.373Z,98146.47
2023-03-10T05:13:53.750Z,98129.63
2023-03-10T05:16:22.608Z,98119.44
2023-03-10T05:18:49.297Z,98120.25
2023-03-10T05:21:16.226Z,98119.16
2023-03-10T05:23:42.777Z,98119.69
2023-03-10T05:26:10.979Z,98116.91
2023-03-10T05:28:37.831Z,98113.06
2023-03-10T05:31:14.193Z,98112.81
2023-03-10T05:33:41.793Z,98109.78
2023-03-10T05:36:10.626Z,98107.28
2023-03-10T05:38:37.945Z,98108.88
2023-03-10T05:41:09.338Z,98108.88
2023-03-10T05:43:35.968Z,98103.13
2023-03-10T05:46:02.809Z,98096.00
2023-03-10T05:48:29.510Z,98088.84
2023-03-10T05:51:05.546Z,98096.00
2023-03-10T05:53:33.855Z,98090.78
2023-03-10T05:56:04.992Z,98086.91
2023-03-10T05:58:31.427Z,98098.22
2023-03-10T06:00:57.923Z,98099.06
2023-03-10T06:03:24.893Z,98102.66
2023-03-10T06:05:51.422Z,98100.44
2023-03-10T06:08:17.796Z,98103.50
2023-03-10T06:10:44.209Z,98099.09
2023-03-10T06:13:10.727Z,98108.19
2023-03-10T06:15:37.217Z,98098.28
2023-03-10T06:18:03.762Z,98104.38
2023-03-10T06:20:30.257Z,98115.16
2023-03-10T06:22:56.625Z,98110.16
2023-03-10T06:25:22.995Z,98106.88
2023-03-10T06:27:49.411Z,98110.50
2023-03-10T06:30:16.412Z,98114.06
2023-03-10T06:32:43.310Z,98111.66
2023-03-10T06:35:13.406Z,98111.59
2023-03-10T06:37:40.132Z,98106.91
2023-03-10T06:40:12.694Z,98110.50
2023-03-10T06:42:43.135Z,98109.97
2023-03-10T06:45:13.604Z,98108.91
2023-03-10T06:47:39.970Z,98118.28
2023-03-10T06:50:07.326Z,98119.09
2023-03-10T06:52:34.740Z,98115.50
2023-03-10T06:55:02.059Z,98132.91
2023-03-10T06:57:28.490Z,98133.72
2023-03-10T06:59:55.351Z,98132.63
2023-03-10T07:02:21.713Z,98134.56
2023-03-10T07:04:48.376Z,98138.41
2023-03-10T07:07:14.928Z,98150.84
2023-03-10T07:09:41.423Z,98141.50
2023-03-10T07:12:08.125Z,98148.69
2023-03-10T07:14:34.511Z,98142.38
2023-03-10T07:17:02.170Z,98142.09
2023-03-10T07:19:28.611Z,98141.50
2023-03-10T07:21:54.994Z,98136.56
2023-03-10T07:24:21.913Z,98142.06
2023-03-10T07:26:48.472Z,98142.66
2023-03-10T07:29:14.942Z,98144.25
2023-03-10T07:31:44.389Z,98140.63
2023-03-10T07:34:10.826Z,98136.47
2023-03-10T07:36:37.337Z,98139.72
2023-03-10T07:39:03.976Z,98143.56
2023-03-10T07:41:30.354Z,98143.78
2023-03-10T07:43:56.782Z,98134.91
2023-03-10T07:46:23.280Z,98132.59
2023-03-10T07:48:51.630Z,98139.44
2023-03-10T07:51:18.591Z,98133.31
2023-03-10T07:53:45.074Z,98137.69
2023-03-10T07:56:13.653Z,98136.88
2023-03-10T07:58:40.846Z,98141.56
2023-03-10T08:01:08.908Z,98144.19
2023-03-10T08:03:35.861Z,98145.50
2023-03-10T08:06:05.330Z,98143.47
2023-03-10T08:08:31.890Z,98138.97
2023-03-10T08:11:03.726Z,98139.38
2023-03-10T08:13:30.284Z,98134.84
2023-03-10T08:16:00.032Z,98139.72
2023-03-10T08:18:27.215Z,98132.19
2023-03-10T08:20:53.654Z,98136.91
2023-03-10T08:23:20.038Z,98142.31
2023-03-10T08:25:46.537Z,98142.06
2023-03-10T08:28:13.276Z,98144.53
2023-03-10T08:30:52.865Z,98137.72
2023-03-10T08:33:28.617Z,98148.66
2023-03-10T08:36:10.574Z,98150.91
2023-03-10T08:38:37.242Z,98151.97
2023-03-10T08:41:14.516Z,98146.25
2023-03-10T08:43:40.980Z,98151.06
2023-03-10T08:46:08.818Z,98154.22
2023-03-10T08:48:36.295Z,98156.09
2023-03-10T08:51:03.297Z,98164.53
2023-03-10T08:53:29.738Z,98161.41
2023-03-10T08:55:56.194Z,98168.84
2023-03-10T08:58:24.432Z,98168.44
2023-03-10T09:00:51.116Z,98168.03
2023-03-10T09:03:18.034Z,98172.59
2023-03-10T09:05:44.837Z,98171.47
2023-03-10T09:08:11.978Z,98155.22
2023-03-10T09:10:40.263Z,98164.31
2023-03-10T09:13:13.708Z,98170.38
2023-03-10T09:15:41.478Z,98175.91
2023-03-10T09:18:10.203Z,98175.75
2023-03-10T09:20:37.690Z,98171.34
2023-03-10T09:23:05.131Z,98192.47
2023-03-10T09:25:31.874Z,98176.63
2023-03-10T09:27:58.696Z,98180.00
2023-03-10T09:30:25.467Z,98179.88
2023-03-10T09:32:52.319Z,98179.13
2023-03-10T09:35:19.557Z,98171.28
2023-03-10T09:37:45.982Z,98186.59
2023-03-10T09:40:20.207Z,98171.63
2023-03-10T09:42:57.087Z,98179.09
2023-03-10T09:45:47.814Z,98183.38
2023-03-10T09:48:32.608Z,98177.94
2023-03-10T09:51:05.750Z,98193.00
2023-03-10T09:54:16.316Z,98175.63
2023-03-10T09:56:42.705Z,98179.41
2023-03-10T09:59:16.793Z,98186.41
2023-03-10T10:01:48.480Z,98179.53
2023-03-10T10:04:23.329Z,98185.97
2023-03-10T10:06:51.155Z,98191.75
2023-03-10T10:09:27.877Z,98178.66
2023-03-10T10:11:54.436Z,98175.34
2023-03-10T10:14:29.300Z,98181.81
2023-03-10T10:17:23.080Z,98176.75
2023-03-10T10:19:50.079Z,98173.59
2023-03-10T10:22:32.305Z,98176.69
2023-03-10T10:25:08.386Z,98173.56
2023-03-10T10:27:39.846Z,98199.63
2023-03-10T10:30:28.515Z,98182.59
2023-03-10T10:33:00.716Z,98190.66
2023-03-10T10:35:30.629Z,98184.16
2023-03-10T10:38:06.431Z,98171.69
2023-03-10T10:40:47.677Z,98175.19
2023-03-10T10:43:21.293Z,98169.84
2023-03-10T10:46:04.338Z,98179.34
2023-03-10T10:48:46.020Z,98186.66
2023-03-10T10:51:21.760Z,98188.97
2023-03-10T10:53:48.438Z,98188.41
2023-03-10T10:56:17.256Z,98182.00
2023-03-10T10:59:00.151Z,98188.09
2023-03-10T11:01:27.071Z,98191.31
2023-03-10T11:04:08.012Z,98169.84
2023-03-10T11:06:37.844Z,98180.38
2023-03-10T11:09:07.955Z,98171.72
2023-03-10T11:12:19.925Z,98180.47
2023-03-10T11:14:52.508Z,98169.81
2023-03-10T11:17:27.596Z,98177.03
2023-03-10T11:19:57.177Z,98169.41
2023-03-10T11:22:44.923Z,98169.91
2023-03-10T11:25:14.537Z,98171.28
2023-03-10T11:27:59.577Z,98183.63
2023-03-10T11:30:32.549Z,98163.94
2023-03-10T11:33:17.611Z,98177.50
2023-03-10T11:35:49.036Z,98159.03
2023-03-10T11:38:37.781Z,98169.44
2023-03-10T11:41:09.929Z,98175.06
2023-03-10T11:43:54.522Z,98171.78
2023-03-10T11:46:38.059Z,98175.06
2023-03-10T11:49:11.186Z,98151.22
2023-03-10T11:51:58.263Z,98160.03
2023-03-10T11:54:33.193Z,98165.91
2023-03-10T11:57:03.387Z,98150.19
2023-03-10T11:59:35.296Z,98158.16
2023-03-10T12:02:11.724Z,98149.94
2023-03-10T12:04:46.854Z,98147.00
2023-03-10T12:07:15.548Z,98145.38
2023-03-10T12:10:18.355Z,98132.69
2023-03-10T12:12:46.805Z,98133.03
2023-03-10T12:15:36.090Z,98136.56
2023-03-10T12:18:07.491Z,98126.22
2023-03-10T12:20:35.570Z,98122.94
2023-03-10T12:23:11.033Z,98123.56
2023-03-10T12:25:40.350Z,98124.47
2023-03-10T12:28:15.633Z,98112.00
2023-03-10T12:30:57.905Z,98102.91
2023-03-10T12:33:30.386Z,98092.44
2023-03-10T12:36:18.488Z,98099.34
2023-03-10T12:38:48.807Z,98101.03
2023-03-10T12:41:27.084Z,98092.66
2023-03-10T12:44:13.454Z,98093.13
2023-03-10T12:46:54.450Z,98095.34
2023-03-10T12:49:46.268Z,98098.75
2023-03-10T12:52:31.134Z,98102.00
2023-03-10T12:55:05.553Z,98085.69
2023-03-10T12:57:46.864Z,98091.47
2023-03-10T13:00:22.211Z,98081.03
2023-03-10T13:02:59.482Z,98074.69
2023-03-10T13:05:39.965Z,98077.22
2023-03-10T13:08:18.754Z,98071.47
2023-03-10T13:10:46.454Z,98065.63
2023-03-10T13:13:17.214Z,98086.09
2023-03-10T13:15:43.805Z,98059.09
2023-03-10T13:18:22.070Z,98046.34
2023-03-10T13:20:49.696Z,98042.78
2023-03-10T13:23:25.032Z,98063.72
2023-03-10T13:25:56.800Z,98062.59
2023-03-10T13:28:25.740Z,98060.72
2023-03-10T13:30:52.565Z,98065.72
2023-03-10T13:33:26.036Z,98065.81
2023-03-10T13:35:53.088Z,98059.56
2023-03-10T13:38:21.935Z,98064.19
2023-03-10T13:40:58.225Z,98062.38
2023-03-10T13:43:42.489Z,98054.19
2023-03-10T13:46:29.860Z,98062.63
2023-03-10T13:49:03.683Z,98061.44
2023-03-10T13:51:32.741Z,98066.34
2023-03-10T13:54:20.371Z,98066.50
2023-03-10T13:56:48.713Z,98095.16
2023-03-10T13:59:18.050Z,98097.97
2023-03-10T14:01:50.043Z,98088.44
2023-03-10T14:04:19.662Z,98098.03
2023-03-10T14:06:46.580Z,98106.56
2023-03-10T14:09:23.261Z,98135.44
2023-03-10T14:11:51.104Z,98162.59
2023-03-10T14:14:29.881Z,98151.56
2023-03-10T14:16:58.088Z,98165.03
2023-03-10T14:19:46.976Z,98171.72
2023-03-10T14:22:41.387Z,98171.13
2023-03-10T14:25:14.303Z,98221.81
2023-03-10T14:27:43.666Z,98194.16
2023-03-10T14:30:18.378Z,98195.16
2023-03-10T14:32:45.215Z,98228.88
2023-03-10T14:35:12.705Z,98212.78
2023-03-10T14:37:39.224Z,98248.72
2023-03-10T14:40:06.649Z,98248.00
2023-03-10T14:42:34.844Z,98234.47
2023-03-10T14:45:06.610Z,98212.97
2023-03-10T14:47:33.464Z,98247.22
2023-03-10T14:50:01.410Z,98234.00
2023-03-10T14:52:27.796Z,98282.16
2023-03-10T14:54:54.186Z,98272.56
2023-03-10T14:57:22.384Z,98272.72
2023-03-10T14:59:49.301Z,98278.44
2023-03-10T15:02:22.301Z,98263.00
2023-03-10T15:04:48.894Z,98274.63
2023-03-10T15:07:17.493Z,98296.97
2023-03-10T15:09:44.781Z,98332.72
2023-03-10T15:12:14.044Z,98297.09
2023-03-10T15:14:43.896Z,98280.94
2023-03-10T15:17:12.583Z,98274.06
2023-03-10T15:19:38.981Z,98301.06
2023-03-10T15:22:05.345Z,98271.34
2023-03-10T15:24:31.745Z,98276.63
2023-03-10T15:26:58.206Z,98312.59
2023-03-10T15:29:24.737Z,98307.28
2023-03-10T15:31:51.291Z,98318.19
2023-03-10T15:34:19.588Z,98335.63
2023-03-10T15:36:47.005Z,98333.31
2023-03-10T15:39:22.042Z,98312.25
2023-03-10T15:41:55.753Z,98321.28
2023-03-10T15:44:22.262Z,98312.09
2023-03-10T15:46:50.880Z,98349.56
2023-03-10T15:49:17.324Z,98323.44
2023-03-10T15:51:44.009Z,98328.84
2023-03-10T15:54:12.387Z,98337.97
2023-03-10T15:56:39.917Z,98327.47
2023-03-10T15:59:08.145Z,98332.81
2023-03-10T16:01:35.101Z,98346.25
2023-03-10T16:04:05.630Z,98385.03
2023-03-10T16:06:33.630Z,98367.91
2023-03-10T16:09:00.575Z,98404.81
2023-03-10T16:11:27.335Z,98388.06
2023-03-10T16:13:53.838Z,98378.44
2023-03-10T16:16:23.211Z,98397.16
2023-03-10T16:18:50.387Z,98388.94
2023-03-10T16:21:18.042Z,98389.16
2023-03-10T16:23:45.416Z,98377.28
2023-03-10T16:26:16.075Z,98393.72
2023-03-10T16:28:45.263Z,98390.69
2023-03-10T16:31:13.649Z,98414.66
2023-03-10T16:33:41.924Z,98405.28
2023-03-10T16:36:12.946Z,98408.63
2023-03-10T16:38:39.434Z,98438.97
2023-03-10T16:41:05.920Z,98458.28
2023-03-10T16:43:33.188Z,98460.47
2023-03-10T16:46:21.628Z,98472.59
2023-03-10T16:48:48.484Z,98468.72
2023-03-10T16:51:30.096Z,98486.84
2023-03-10T16:54:04.856Z,98512.13
2023-03-10T16:56:32.664Z,98522.44
2023-03-10T16:58:59.074Z,98539.47
2023-03-10T17:01:25.713Z,98574.53
2023-03-10T17:03:54.227Z,98593.72
2023-03-10T17:06:24.225Z,98618.13
2023-03-10T17:08:51.652Z,98655.09
2023-03-10T17:11:22.609Z,98666.88
2023-03-10T17:13:53.086Z,98743.84
2023-03-10T17:16:20.993Z,98768.84
2023-03-10T17:18:47.436Z,98780.47
2023-03-10T17:21:23.030Z,98770.06
2023-03-10T17:23:50.652Z,98805.91
2023-03-10T17:26:18.808Z,98824.72
2023-03-10T17:28:48.206Z,98871.50
2023-03-10T17:31:17.513Z,98829.09
2023-03-10T17:33:44.000Z,98879.53
2023-03-10T17:36:13.074Z,98891.75
2023-03-10T17:38:40.375Z,98855.38
2023-03-10T17:41:09.003Z,98862.66
2023-03-10T17:43:36.570Z,98871.09
2023-03-10T17:46:14.842Z,98875.56
2023-03-10T17:48:41.844Z,98870.59
2023-03-10T17:51:09.217Z,98841.84
2023-03-10T17:53:35.994Z,98910.88
2023-03-10T17:56:06.876Z,98904.94
2023-03-10T17:58:34.026Z,98918.28
2023-03-10T18:01:08.337Z,98931.84
2023-03-10T18:03:36.284Z,98903.13
2023-03-10T18:06:03.926Z,98888.72
2023-03-10T18:08:30.638Z,98938.66
2023-03-10T18:11:04.959Z,99028.75
2023-03-10T18:13:32.165Z,98967.19
2023-03-10T18:15:58.848Z,98964.50
2023-03-10T18:18:25.708Z,98963.28
2023-03-10T18:20:52.102Z,98990.28
2023-03-10T18:23:20.634Z,99007.41
2023-03-10T18:25:47.025Z,99024.84
2023-03-10T18:28:16.732Z,99031.72
2023-03-10T18:30:45.398Z,99025.88
2023-03-10T18:33:12.401Z,99020.84
2023-03-10T18:35:40.516Z,99044.31
2023-03-10T18:38:06.973Z,99043.69
2023-03-10T18:40:33.847Z,99046.00
2023-03-10T18:43:00.226Z,99074.94
2023-03-10T18:45:26.728Z,99116.78
2023-03-10T18:47:53.121Z,99096.28
2023-03-10T18:50:19.555Z,99128.09
2023-03-10T18:52:46.201Z,99118.50
2023-03-10T18:55:13.469Z,99127.91
2023-03-10T18:57:40.016Z,99140.00
2023-03-10T19:00:07.730Z,99157.84
2023-03-10T19:02:35.609Z,99176.69
2023-03-10T19:05:05.076Z,99195.06
2023-03-10T19:07:33.259Z,99212.25
2023-03-10T19:10:00.119Z,99199.91
2023-03-10T19:12:28.463Z,99214.13
2023-03-10T19:14:55.589Z,99228.59
2023-03-10T19:17:22.838Z,99267.31
2023-03-10T19:19:49.295Z,99279.44
2023-03-10T19:22:15.773Z,99272.34
2023-03-10T19:24:42.235Z,99275.47
2023-03-10T19:27:08.796Z,99275.66
2023-03-10T19:29:35.207Z,99306.84
2023-03-10T19:32:02.265Z,99304.34
2023-03-10T19:34:29.059Z,99319.19
2023-03-10T19:36:55.436Z,99349.78
2023-03-10T19:39:23.764Z,99330.69
2023-03-10T19:41:50.483Z,99339.50
2023-03-10T19:44:17.106Z,99384.09
2023-03-10T19:46:43.577Z,99385.97
2023-03-10T19:49:10.051Z,99378.03
2023-03-10T19:51:36.433Z,99398.13
2023-03-10T19:54:04.169Z,99412.38
2023-03-10T19:56:30.773Z,99432.03
2023-03-10T19:58:57.217Z,99439.16
2023-03-10T20:01:26.159Z,99425.34
2023-03-10T20:03:55.494Z,99446.06
2023-03-10T20:06:22.569Z,99446.66
2023-03-10T20:08:49.461Z,99452.34
2023-03-10T20:11:16.838Z,99459.66
2023-03-10T20:13:44.227Z,99481.88
2023-03-10T20:16:14.318Z,99454.66
2023-03-10T20:18:41.503Z,99469.69
2023-03-10T20:21:08.094Z,99494.81
2023-03-10T20:23:35.469Z,99508.66
2023-03-10T20:26:06.637Z,99506.34
2023-03-10T20:28:34.472Z,99513.88
2023-03-10T20:31:01.412Z,99519.53
2023-03-10T20:33:28.110Z,99535.84
2023-03-10T20:35:54.727Z,99558.03
2023-03-10T20:38:21.710Z,99539.78
2023-03-10T20:40:48.651Z,99537.06
2023-03-10T20:43:15.082Z,99548.19
2023-03-10T20:45:41.458Z,99552.34
2023-03-10T20:48:07.875Z,99559.66
2023-03-10T20:50:34.969Z,99552.53
2023-03-10T20:53:02.383Z,99574.78
2023-03-10T20:55:32.375Z,99591.47
2023-03-10T20:58:00.459Z,99596.53
2023-03-10T21:00:29.172Z,99605.31
2023-03-10T21:02:57.273Z,99602.41
2023-03-10T21:05:26.015Z,99623.97
2023-03-10T21:07:52.824Z,99603.22
2023-03-10T21:10:19.474Z,99609.94
2023-03-10T21:12:46.220Z,99630.06
2023-03-10T21:15:15.526Z,99643.84
2023-03-10T21:17:42.457Z,99645.00
2023-03-10T21:20:10.389Z,99642.06
2023-03-10T21:22:39.362Z,99652.69
2023-03-10T21:25:08.955Z,99655.38
2023-03-10T21:27:35.693Z,99650.50
2023-03-10T21:30:04.294Z,99666.19
2023-03-10T21:32:30.881Z,99656.53
2023-03-10T21:34:57.309Z,99664.50
2023-03-10T21:37:23.732Z,99659.69
2023-03-10T21:39:50.138Z,99670.41
2023-03-10T21:42:16.579Z,99669.69
2023-03-10T21:44:42.979Z,99680.81
2023-03-10T21:47:09.396Z,99683.72
2023-03-10T21:49:35.879Z,99682.25
2023-03-10T21:52:03.348Z,99674.03
2023-03-10T21:54:29.953Z,99679.09
2023-03-10T21:56:59.166Z,99708.16
2023-03-10T21:59:26.226Z,99713.78
2023-03-10T22:01:52.730Z,99704.13
2023-03-10T22:04:19.267Z,99727.13
2023-03-10T22:06:45.700Z,99742.19
2023-03-10T22:09:12.183Z,99735.53
2023-03-10T22:11:38.554Z,99737.22
2023-03-10T22:14:05.198Z,99744.75
2023-03-10T22:16:31.677Z,99749.97
2023-03-10T22:18:58.066Z,99747.47
2023-03-10T22:21:24.474Z,99758.97
2023-03-10T22:23:50.869Z,99752.09
2023-03-10T22:26:17.287Z,99764.84
2023-03-10T22:28:43.681Z,99770.56
2023-03-10T22:31:11.090Z,99776.84
2023-03-10T22:33:37.531Z,99797.09
2023-03-10T22:36:05.731Z,99800.88
2023-03-10T22:38:32.782Z,99787.00
2023-03-10T22:40:59.424Z,99805.00
2023-03-10T22:43:26.119Z,99831.94
2023-03-10T22:45:56.390Z,99812.63
2023-03-10T22:48:23.297Z,99832.13
2023-03-10T22:50:49.663Z,99826.03
2023-03-10T22:53:18.191Z,99825.84
2023-03-10T22:55:46.433Z,99843.38
2023-03-10T22:58:14.294Z,99825.00
2023-03-10T23:00:42.420Z,99834.00
2023-03-10T23:03:14.155Z,99837.56
2023-03-10T23:05:41.235Z,99844.88
2023-03-10T23:08:08.507Z,99849.53
2023-03-10T23:10:36.362Z,99824.63
2023-03-10T23:13:05.733Z,99849.28
2023-03-10T23:15:34.735Z,99848.25
2023-03-10T23:18:01.694Z,99870.00
2023-03-10T23:20:32.750Z,99865.41
2023-03-10T23:23:00.631Z,99856.78
2023-03-10T23:25:32.267Z,99846.56
2023-03-10T23:27:59.729Z,99847.22
2023-03-10T23:30:26.821Z,99850.50
2023-03-10T23:32:53.802Z,99852.00
2023-03-10T23:35:24.153Z,99881.91
2023-03-10T23:37:51.191Z,99878.94
2023-03-10T23:40:20.511Z,99882.28
2023-03-10T23:42:47.272Z,99884.38
2023-03-10T23:45:18.502Z,99888.97
2023-03-10T23:47:45.890Z,99895.25
2023-03-10T23:50:21.117Z,99884.38
2023-03-10T23:52:47.713Z,99905.28
2023-03-10T23:55:18.450Z,99908.44
2023-03-10T23:57:44.887Z,99906.38
